Time;durP1;ratioP1;P1;durP2;ratioP2;P2;SDS_P1;SDS_P2;PMS_P1;PMS_P2;Temp;Humidity;BMP_temperature;BMP_pressure;BME280_temperature;BME280_humidity;BME280_pressure;Samples;Min_cycle;Max_cycle;Signal;HPM_P1;HPM_P2
2022/08/10 00:01:37;;;;;;;4.00;2.08;;;;;;;19.81;67.12;100574.47;4899054;29;20480;-68
2022/08/10 00:04:03;;;;;;;4.25;2.13;;;;;;;19.82;66.44;100559.16;4899127;29;20408;-68
2022/08/10 00:06:28;;;;;;;3.60;2.03;;;;;;;19.98;66.22;100576.16;4901194;29;20516;-68
2022/08/10 00:08:54;;;;;;;3.92;2.20;;;;;;;19.99;65.67;100576.03;4899020;29;20047;-68
2022/08/10 00:11:19;;;;;;;6.20;3.15;;;;;;;20.09;65.36;100589.84;4899169;29;20438;-68
2022/08/10 00:13:45;;;;;;;5.10;2.13;;;;;;;20.12;65.28;100574.31;4899036;29;20036;-68
2022/08/10 00:16:10;;;;;;;4.43;2.20;;;;;;;20.17;64.03;100580.31;4898304;29;20033;-68
2022/08/10 00:18:36;;;;;;;3.90;2.30;;;;;;;20.18;64.71;100579.34;4900302;29;20196;-68
2022/08/10 00:21:06;;;;;;;5.50;1.88;;;;;;;20.17;64.32;100583.03;4897954;29;20119;-68
2022/08/10 00:23:33;;;;;;;4.38;2.05;;;;;;;20.15;64.21;100579.56;4898079;29;20033;-68
2022/08/10 00:25:59;;;;;;;4.03;1.98;;;;;;;20.16;64.09;100572.31;4897345;29;20029;-68
2022/08/10 00:28:24;;;;;;;6.32;2.10;;;;;;;20.14;64.77;100576.91;4897781;29;20032;-68
2022/08/10 00:30:50;;;;;;;4.13;2.03;;;;;;;20.11;63.55;100574.41;4898195;29;20036;-68
2022/08/10 00:33:15;;;;;;;3.22;2.10;;;;;;;20.11;63.59;100567.19;4898542;29;20032;-68
2022/08/10 00:35:41;;;;;;;3.90;2.22;;;;;;;20.13;63.12;100581.44;4898649;29;20485;-68
2022/08/10 00:38:06;;;;;;;2.65;1.80;;;;;;;20.10;63.73;100578.94;4898468;29;20033;-68
2022/08/10 00:40:32;;;;;;;3.45;2.28;;;;;;;20.05;63.84;100578.34;4898357;29;20056;-68
2022/08/10 00:42:57;;;;;;;6.20;2.10;;;;;;;20.04;63.41;100571.22;4898358;29;20029;-68
2022/08/10 00:45:23;;;;;;;2.78;1.60;;;;;;;20.06;63.67;100573.81;4898313;29;20028;-68
2022/08/10 00:47:48;;;;;;;3.78;2.20;;;;;;;20.05;63.82;100578.34;4898347;29;20024;-68
2022/08/10 00:50:16;;;;;;;3.58;2.22;;;;;;;20.03;64.08;100579.44;4898511;29;20696;-68
2022/08/10 00:52:43;;;;;;;3.72;2.20;;;;;;;19.92;64.59;100577.38;4898153;29;20060;-68
2022/08/10 00:55:08;;;;;;;4.93;2.13;;;;;;;19.87;64.31;100571.41;4898257;29;20599;-68
2022/08/10 00:57:34;;;;;;;3.75;1.95;;;;;;;19.83;64.38;100571.69;4898112;29;20119;-68
2022/08/10 01:00:00;;;;;;;4.65;2.22;;;;;;;19.75;64.38;100572.16;4897939;29;20056;-68
2022/08/10 01:02:30;;;;;;;3.22;2.30;;;;;;;19.70;65.07;100571.59;4896717;29;20104;-68
2022/08/10 01:04:58;;;;;;;3.90;2.20;;;;;;;19.68;65.68;100578.91;4898021;29;20033;-68
2022/08/10 01:07:42;;;;;;;3.70;2.40;;;;;;;19.70;66.13;100571.59;4898140;29;20515;-68
2022/08/10 01:10:46;;;;;;;3.72;2.25;;;;;;;19.67;66.44;100566.34;4897926;29;20053;-68
2022/08/10 01:13:35;;;;;;;3.78;2.28;;;;;;;19.57;66.62;100567.91;4821478;29;20034;-68
2022/08/10 01:16:04;;;;;;;4.13;2.03;;;;;;;19.51;67.56;100570.94;4814770;29;20065;-69
2022/08/10 01:18:36;;;;;;;3.13;2.20;;;;;;;19.43;67.05;100578.63;4864668;29;20048;-69
2022/08/10 01:21:01;;;;;;;5.45;2.47;;;;;;;19.38;67.63;100578.91;4899850;29;20024;-69
2022/08/10 01:23:48;;;;;;;5.85;2.40;;;;;;;19.37;67.72;100573.63;4897672;29;20045;-69
2022/08/10 01:26:46;;;;;;;5.63;2.22;;;;;;;19.41;67.22;100576.03;4897847;29;20548;-68
2022/08/10 01:29:29;;;;;;;4.53;2.33;;;;;;;19.32;67.05;100581.97;4897651;29;20051;-68
2022/08/10 01:32:01;;;;;;;4.15;2.45;;;;;;;19.29;67.73;100573.22;4896629;29;20029;-68
2022/08/10 01:34:32;;;;;;;2.75;1.83;;;;;;;19.27;nan;100577.78;4896852;29;20760;-68
2022/08/10 01:37:10;;;;;;;3.60;2.10;;;;;;;19.24;68.30;100572.56;4896642;29;20024;-68
2022/08/10 01:39:42;;;;;;;4.25;2.50;;;;;;;19.26;68.66;100573.31;4896703;29;20449;-68
2022/08/10 01:42:12;;;;;;;4.00;2.40;;;;;;;19.26;68.44;100576.03;4896525;29;20105;-68
2022/08/10 01:44:51;;;;;;;3.53;2.10;;;;;;;19.22;67.80;100579.88;4896608;29;20032;-68
2022/08/10 01:50:29;;;;;;;4.70;2.45;;;;;;;19.17;68.67;100585.56;4897211;29;20043;-68
2022/08/10 01:53:01;;;;;;;3.53;2.30;;;;;;;19.08;68.70;100579.81;4885374;29;20041;-68
2022/08/10 01:55:28;;;;;;;3.92;1.95;;;;;;;19.04;69.01;100570.16;4897212;29;20036;-68
2022/08/10 01:57:55;;;;;;;5.05;2.35;;;;;;;19.04;68.95;100592.63;4896795;29;20025;-68
2022/08/10 02:00:21;;;;;;;4.03;2.30;;;;;;;19.04;69.00;100583.66;4876751;29;20125;-68
2022/08/10 02:02:48;;;;;;;3.78;2.20;;;;;;;18.96;69.09;100589.47;4867019;29;20057;-68
2022/08/10 02:05:15;;;;;;;5.30;2.30;;;;;;;18.97;68.08;100590.34;4859752;29;20057;-68
2022/08/10 02:07:42;;;;;;;5.28;2.80;;;;;;;18.92;68.69;100576.28;4859602;29;20537;-68
2022/08/10 02:10:13;;;;;;;4.28;2.35;;;;;;;18.93;67.74;100583.41;4859558;29;20033;-68
2022/08/10 02:12:41;;;;;;;3.78;2.40;;;;;;;18.91;68.87;100579.94;4859647;29;20084;-68
2022/08/10 02:15:11;;;;;;;4.22;2.15;;;;;;;18.85;68.23;100582.97;4859622;29;20030;-68
2022/08/10 02:17:41;;;;;;;4.07;2.10;;;;;;;18.85;68.39;100581.13;4859885;29;20025;-68
2022/08/10 02:20:15;;;;;;;3.15;2.10;;;;;;;18.81;67.71;100584.13;4860610;29;20033;-68
2022/08/10 02:22:43;;;;;;;4.88;2.65;;;;;;;18.82;68.22;100588.53;4859507;29;20021;-68
2022/08/10 02:25:10;;;;;;;3.08;2.03;;;;;;;18.84;67.28;100592.91;4859483;29;20045;-68
2022/08/10 02:27:36;;;;;;;5.18;2.40;;;;;;;18.86;68.36;100590.97;4859271;29;20431;-68
2022/08/10 02:30:04;;;;;;;2.95;2.10;;;;;;;18.82;68.53;100596.63;4859361;29;20063;-68
2022/08/10 02:32:32;;;;;;;3.70;2.53;;;;;;;18.82;68.31;100591.22;4859192;29;20033;-68
2022/08/10 02:34:59;;;;;;;3.15;2.08;;;;;;;18.76;68.77;100587.06;4859414;29;20033;-68
2022/08/10 02:37:26;;;;;;;5.43;2.53;;;;;;;18.81;68.60;100597.59;4859217;29;20045;-68
2022/08/10 02:39:52;;;;;;;3.47;2.33;;;;;;;18.79;68.18;100591.41;4859192;29;20398;-68
2022/08/10 02:42:24;;;;;;;3.80;2.13;;;;;;;18.75;68.96;100598.78;4858900;29;20029;-68
2022/08/10 02:45:12;;;;;;;4.63;2.30;;;;;;;18.74;68.92;100598.88;4859110;29;20044;-69
2022/08/10 02:47:57;;;;;;;3.80;2.20;;;;;;;18.71;69.15;100599.06;4839981;29;20034;-68
2022/08/10 02:50:28;;;;;;;3.55;2.20;;;;;;;18.65;69.40;100599.41;4839575;29;20037;-68
2022/08/10 02:53:10;;;;;;;5.68;2.67;;;;;;;18.58;69.97;100604.28;4839843;29;20041;-68
2022/08/10 02:55:48;;;;;;;4.25;2.35;;;;;;;18.53;69.74;100600.97;4840007;29;20107;-68
2022/08/10 02:58:19;;;;;;;3.53;2.50;;;;;;;18.55;70.33;100600.88;4839835;29;20030;-69
2022/08/10 03:00:52;;;;;;;4.05;2.40;;;;;;;18.44;70.88;100592.50;4873852;29;20644;-69
2022/08/10 03:03:22;;;;;;;4.18;2.40;;;;;;;18.42;70.99;100602.53;4890028;29;20035;-69
2022/08/10 03:05:52;;;;;;;3.88;2.42;;;;;;;18.36;70.62;100604.56;4879369;29;20127;-69
2022/08/10 03:08:23;;;;;;;9.70;2.92;;;;;;;18.34;70.35;100608.28;4895957;29;20115;-69
2022/08/10 03:10:50;;;;;;;4.47;2.20;;;;;;;18.34;70.70;100601.09;4895705;29;20388;-69
2022/08/10 03:13:16;;;;;;;3.70;2.47;;;;;;;18.26;70.28;100597.94;4895948;29;20028;-69
2022/08/10 03:15:44;;;;;;;5.18;2.30;;;;;;;18.28;70.36;100596.03;4895823;29;20036;-69
2022/08/10 03:18:12;;;;;;;5.30;2.35;;;;;;;18.28;70.03;100605.94;4895880;29;20073;-68
2022/08/10 03:20:40;;;;;;;4.80;2.58;;;;;;;18.30;68.72;100602.19;4895783;29;20032;-69
2022/08/10 03:23:13;;;;;;;4.63;2.10;;;;;;;18.31;69.79;100601.25;4878857;29;20032;-69
2022/08/10 03:25:40;;;;;;;6.40;2.50;;;;;;;18.30;70.04;100610.28;4895062;29;20047;-69
2022/08/10 03:28:07;;;;;;;5.95;2.28;;;;;;;18.27;69.24;100610.44;4897466;29;20027;-69
2022/08/10 03:30:32;;;;;;;3.75;2.22;;;;;;;18.23;69.81;100602.63;4913732;29;20047;-69
2022/08/10 03:33:00;;;;;;;4.10;2.20;;;;;;;18.22;69.87;100601.75;4903508;29;20361;-69
2022/08/10 03:35:26;;;;;;;4.55;2.70;;;;;;;18.24;69.73;100613.31;4894830;29;20115;-69
2022/08/10 03:37:52;;;;;;;11.60;4.30;;;;;;;18.15;69.24;100600.31;4894700;29;20044;-69
2022/08/10 03:40:17;;;;;;;4.65;2.67;;;;;;;18.16;70.01;100612.84;4895527;29;20033;-70
2022/08/10 03:42:46;;;;;;;10.20;2.95;;;;;;;18.10;70.68;100615.88;4895592;29;20025;-69
2022/08/10 03:45:13;;;;;;;16.35;2.75;;;;;;;18.08;70.30;100607.03;4895760;29;20183;-69
2022/08/10 03:47:41;;;;;;;10.80;2.83;;;;;;;18.08;70.63;100606.13;4895678;29;20382;-69
2022/08/10 03:50:09;;;;;;;4.50;2.33;;;;;;;18.08;70.41;100604.34;4895642;29;20032;-69
2022/08/10 03:52:34;;;;;;;34.80;5.15;;;;;;;18.03;70.85;100606.41;4894403;29;20043;-69
2022/08/10 03:55:00;;;;;;;8.60;2.72;;;;;;;18.08;70.56;100612.41;4895430;29;20029;-69
2022/08/10 03:57:28;;;;;;;4.13;2.60;;;;;;;18.09;69.99;100619.53;4895212;29;20060;-69
2022/08/10 03:59:54;;;;;;;5.65;2.58;;;;;;;18.08;69.70;100615.09;4894431;29;20049;-69
2022/08/10 04:02:20;;;;;;;6.97;2.80;;;;;;;18.15;69.80;100621.03;4896551;29;20471;-69
2022/08/10 04:04:46;;;;;;;6.07;2.47;;;;;;;18.14;69.47;100620.16;4898318;29;20055;-69
2022/08/10 04:07:11;;;;;;;5.15;2.17;;;;;;;18.10;70.25;100613.16;4898358;29;20028;-69
2022/08/10 04:09:38;;;;;;;6.38;2.40;;;;;;;18.15;70.00;100621.03;4900455;29;20036;-69
2022/08/10 04:12:04;;;;;;;4.10;2.20;;;;;;;18.14;70.15;100619.25;4898578;29;20038;-69
2022/08/10 04:14:30;;;;;;;7.47;2.78;;;;;;;18.15;69.91;100629.94;4898573;29;20374;-69
2022/08/10 04:16:55;;;;;;;4.35;2.42;;;;;;;18.05;69.70;100611.69;4899043;29;20043;-69
2022/08/10 04:19:22;;;;;;;3.80;2.42;;;;;;;18.16;69.81;100618.25;4898680;29;20025;-69
2022/08/10 04:21:58;;;;;;;4.85;2.33;;;;;;;18.15;69.55;100624.56;4898865;29;20031;-69
2022/08/10 04:24:26;;;;;;;4.93;2.92;;;;;;;18.19;69.42;100634.22;4900938;29;20481;-69
2022/08/10 04:26:51;;;;;;;4.75;2.60;;;;;;;18.15;68.32;100624.56;4898804;29;20117;-69
2022/08/10 04:29:17;;;;;;;5.88;2.58;;;;;;;18.25;69.52;100639.28;4898695;29;20132;-69
2022/08/10 04:31:45;;;;;;;9.70;3.00;;;;;;;18.26;68.45;100646.41;4898645;29;20031;-69
2022/08/10 04:34:14;;;;;;;6.80;2.63;;;;;;;18.26;69.00;100634.78;4898613;29;20064;-70
2022/08/10 04:36:41;;;;;;;7.32;3.00;;;;;;;18.30;69.05;100644.44;4898600;29;20024;-69
2022/08/10 04:39:06;;;;;;;8.88;2.67;;;;;;;18.27;68.96;100648.16;4898479;29;20040;-69
2022/08/10 04:41:32;;;;;;;9.82;3.35;;;;;;;18.38;68.63;100652.97;4898451;29;20024;-69
2022/08/10 04:43:58;;;;;;;6.75;2.75;;;;;;;18.36;68.62;100633.31;4898323;29;20484;-69
2022/08/10 04:46:23;;;;;;;5.97;3.25;;;;;;;18.47;68.82;100648.94;4898371;29;20029;-69
2022/08/10 04:48:49;;;;;;;7.45;2.58;;;;;;;18.52;68.19;100653.09;4898472;29;20478;-69
2022/08/10 04:51:16;;;;;;;6.07;2.85;;;;;;;18.60;67.81;100650.00;4898328;29;20029;-69
2022/08/10 04:53:41;;;;;;;6.88;3.10;;;;;;;18.68;66.85;100651.28;4898278;29;20037;-69
2022/08/10 04:56:07;;;;;;;5.13;2.22;;;;;;;18.70;66.61;100646.69;4898261;29;20465;-69
2022/08/10 04:58:34;;;;;;;7.50;4.35;;;;;;;18.76;65.92;100634.72;4896894;29;20024;-69
2022/08/10 05:00:59;;;;;;;4.40;2.80;;;;;;;18.93;64.92;100651.66;4879397;29;20049;-69
2022/08/10 05:03:25;;;;;;;4.50;2.33;;;;;;;18.99;64.41;100655.84;4877633;29;20040;-69
2022/08/10 05:05:50;;;;;;;13.73;2.42;;;;;;;19.04;64.58;100651.94;4877937;29;20065;-69
2022/08/10 05:08:15;;;;;;;10.07;3.53;;;;;;;19.12;64.14;100648.81;4877977;29;20040;-69
2022/08/10 05:10:41;;;;;;;3.72;2.47;;;;;;;19.14;63.29;100641.50;4879232;29;20077;-69
2022/08/10 05:13:07;;;;;;;5.22;2.33;;;;;;;19.31;64.08;100657.59;4878975;29;20033;-69
2022/08/10 05:15:33;;;;;;;3.85;2.70;;;;;;;19.40;63.22;100659.75;4879206;29;20549;-69
2022/08/10 05:17:58;;;;;;;3.63;2.25;;;;;;;19.47;63.24;100659.31;4877891;29;20033;-69
2022/08/10 05:20:24;;;;;;;4.57;2.30;;;;;;;19.55;61.94;100653.47;4878869;29;20035;-70
2022/08/10 05:22:49;;;;;;;3.42;2.20;;;;;;;19.71;61.76;100653.41;4879141;29;20458;-69
2022/08/10 05:25:17;;;;;;;3.75;2.05;;;;;;;19.78;62.50;100655.66;4879021;29;20021;-69
2022/08/10 05:27:44;;;;;;;5.60;2.08;;;;;;;19.89;61.58;100655.88;4879170;29;20037;-69
2022/08/10 05:30:14;;;;;;;5.20;2.45;;;;;;;19.98;61.13;100658.03;4878945;29;20025;-69
2022/08/10 05:32:40;;;;;;;4.93;2.78;;;;;;;20.14;61.22;100661.53;4878665;29;20064;-69
2022/08/10 05:35:06;;;;;;;4.28;2.63;;;;;;;20.23;60.85;100666.38;4878519;29;20060;-69
2022/08/10 05:37:32;;;;;;;5.78;2.58;;;;;;;20.36;60.18;100653.00;4880896;29;20380;-69
2022/08/10 05:39:59;;;;;;;3.80;2.10;;;;;;;20.54;59.32;100657.25;4877542;29;20534;-69
2022/08/10 05:42:25;;;;;;;3.97;2.20;;;;;;;20.63;58.89;100657.53;4877582;29;20343;-69
2022/08/10 05:44:51;;;;;;;5.72;2.13;;;;;;;20.82;58.44;100663.47;4877641;29;20084;-69
2022/08/10 05:47:16;;;;;;;3.35;2.10;;;;;;;20.93;58.81;100671.78;4877315;29;20040;-69
2022/08/10 05:49:42;;;;;;;5.60;2.42;;;;;;;21.04;58.45;100662.16;4875881;29;20391;-69
2022/08/10 05:52:08;;;;;;;5.15;2.53;;;;;;;21.10;57.46;100667.16;4876241;29;20025;-69
2022/08/10 05:54:33;;;;;;;3.63;2.47;;;;;;;21.33;57.59;100666.50;4878298;29;20060;-69
2022/08/10 05:56:59;;;;;;;3.35;2.08;;;;;;;21.41;58.17;100661.44;4878285;29;20037;-69
2022/08/10 05:59:28;;;;;;;6.72;1.98;;;;;;;21.56;57.05;100676.66;4876765;29;20112;-69
2022/08/10 06:01:55;;;;;;;6.70;2.70;;;;;;;21.64;57.07;100664.34;4878167;29;20090;-69
2022/08/10 06:04:28;;;;;;;5.85;2.13;;;;;;;21.77;56.13;100664.41;4880498;29;20116;-69
2022/08/10 06:06:54;;;;;;;;;;;;;;;21.94;55.83;100672.25;4878653;29;20033;-70
2022/08/10 06:09:20;;;;;;;5.60;2.35;;;;;;;22.07;56.34;100673.16;4875101;29;19964;-69
2022/08/10 06:11:48;;;;;;;5.68;2.05;;;;;;;22.11;56.26;100659.28;4862864;29;20049;-70
2022/08/10 06:17:01;;;;;;;6.05;2.10;;;;;;;22.34;55.08;100654.09;4858374;29;20076;-70
2022/08/10 06:19:28;;;;;;;4.25;2.17;;;;;;;22.54;54.11;100676.13;4871836;29;20049;-70
2022/08/10 06:21:56;;;;;;;5.25;2.10;;;;;;;22.65;54.22;100676.22;4863798;29;20037;-69
2022/08/10 06:24:25;;;;;;;4.88;2.00;;;;;;;22.76;53.53;100676.31;4875746;29;20025;-69
2022/08/10 06:26:50;;;;;;;5.00;2.22;;;;;;;22.92;53.42;100668.81;4875470;29;20037;-70
2022/08/10 06:29:17;;;;;;;6.05;2.20;;;;;;;23.06;53.67;100676.78;4875181;29;20025;-69
2022/08/10 06:31:47;;;;;;;3.75;1.88;;;;;;;23.30;52.87;100675.03;4875314;29;20350;-69
2022/08/10 06:34:14;;;;;;;3.55;2.40;;;;;;;23.49;52.34;100669.09;4876244;29;20081;-69
2022/08/10 06:36:42;;;;;;;2.97;2.05;;;;;;;23.58;51.92;100678.38;4876543;29;20037;-69
2022/08/10 06:39:08;;;;;;;4.03;1.83;;;;;;;23.74;51.85;100668.09;4876149;29;20454;-69
2022/08/10 06:41:37;;;;;;;4.88;1.67;;;;;;;23.81;51.47;100658.47;4872868;29;20071;-69
2022/08/10 06:44:07;;;;;;;4.53;2.08;;;;;;;23.94;50.42;100664.69;4872497;29;20039;-69
2022/08/10 06:46:36;;;;;;;2.78;1.83;;;;;;;24.08;50.05;100672.69;4875744;29;20111;-69
2022/08/10 06:49:04;;;;;;;3.97;2.25;;;;;;;24.21;49.80;100670.72;4876043;29;20115;-69
2022/08/10 06:51:33;;;;;;;7.63;2.28;;;;;;;24.31;49.07;100659.03;4875880;29;20045;-69
2022/08/10 06:54:03;;;;;;;2.83;1.85;;;;;;;24.49;49.47;100667.56;4876713;29;20041;-69
2022/08/10 06:56:35;;;;;;;5.15;1.98;;;;;;;24.75;48.48;100669.09;4875876;29;20037;-69
2022/08/10 06:59:24;;;;;;;3.58;2.00;;;;;;;25.01;47.96;100665.13;4879570;29;20060;-69
2022/08/10 07:02:01;;;;;;;3.35;1.90;;;;;;;25.19;46.96;100666.31;4893913;29;20039;-67
2022/08/10 07:04:32;;;;;;;6.40;2.17;;;;;;;25.36;46.15;100657.66;4895061;29;20509;-67
2022/08/10 07:07:03;;;;;;;3.53;1.85;;;;;;;25.48;45.96;100659.38;4894865;29;20104;-67
2022/08/10 07:09:34;;;;;;;3.17;1.80;;;;;;;25.77;46.36;100660.50;4894542;29;20859;-67
2022/08/10 07:12:01;;;;;;;6.70;1.67;;;;;;;26.03;44.31;100660.16;4894659;29;20040;-68
2022/08/10 07:14:28;;;;;;;4.20;1.70;;;;;;;26.20;44.11;100662.28;4894491;29;20503;-66
2022/08/10 07:16:55;;;;;;;3.03;1.88;;;;;;;26.43;43.81;100664.72;4893779;29;20032;-66
2022/08/10 07:19:22;;;;;;;2.22;1.40;;;;;;;26.62;43.09;100663.97;4893638;29;20051;-66
2022/08/10 07:21:49;;;;;;;6.18;1.90;;;;;;;26.85;43.08;100665.56;4893289;29;20040;-66
2022/08/10 07:24:16;;;;;;;3.17;1.50;;;;;;;27.03;42.02;100672.09;4893562;29;20040;-67
2022/08/10 07:26:51;;;;;;;2.63;1.73;;;;;;;27.34;43.07;100662.88;4890507;29;20047;-66
2022/08/10 07:29:19;;;;;;;3.08;1.67;;;;;;;27.59;41.94;100669.66;4893787;29;20116;-66
2022/08/10 07:31:48;;;;;;;3.67;1.52;;;;;;;27.89;41.76;100659.47;4895834;29;20092;-67
2022/08/10 07:34:16;;;;;;;2.58;1.55;;;;;;;28.23;40.91;100647.09;4894486;29;20080;-67
2022/08/10 07:36:43;;;;;;;3.75;1.70;;;;;;;28.31;39.54;100644.47;4896606;29;20043;-67
2022/08/10 07:39:11;;;;;;;6.70;1.52;;;;;;;28.60;40.29;100660.00;4884786;29;20408;-67
2022/08/10 07:41:41;;;;;;;3.78;1.70;;;;;;;28.90;38.84;100646.00;4862028;29;20081;-67
2022/08/10 07:44:09;;;;;;;4.30;1.50;;;;;;;29.16;38.71;100658.91;4879447;29;20040;-67
2022/08/10 07:46:39;;;;;;;4.93;1.73;;;;;;;29.30;38.75;100649.31;4883147;29;20025;-68
2022/08/10 07:49:13;;;;;;;3.65;1.55;;;;;;;29.38;39.57;100650.25;4886199;29;20048;-67
2022/08/10 07:51:40;;;;;;;2.72;1.52;;;;;;;29.75;38.16;100658.41;4896799;29;20099;-68
2022/08/10 07:54:14;;;;;;;2.97;1.52;;;;;;;29.96;37.41;100653.44;4882225;29;20037;-68
2022/08/10 07:56:46;;;;;;;2.85;1.70;;;;;;;30.30;37.45;100650.81;4892606;29;20031;-67
2022/08/10 07:59:16;;;;;;;3.77;1.77;;;;;;;30.56;37.48;100663.53;4861305;29;20068;-68
2022/08/10 08:01:49;;;;;;;4.00;1.40;;;;;;;30.72;36.57;100658.19;4878090;29;20324;-67
2022/08/10 08:04:18;;;;;;;4.47;1.50;;;;;;;30.95;36.32;100646.63;4882960;29;20040;-68
2022/08/10 08:06:45;;;;;;;2.38;1.40;;;;;;;31.33;36.70;100660.75;4895112;29;20040;-68
2022/08/10 08:09:11;;;;;;;3.30;1.52;;;;;;;31.48;36.22;100650.81;4896412;29;20036;-68
2022/08/10 08:11:40;;;;;;;2.67;1.40;;;;;;;31.62;36.05;100654.78;4896543;29;20028;-67
2022/08/10 08:14:06;;;;;;;7.22;1.70;;;;;;;31.95;35.10;100648.31;4896786;29;20042;-66
2022/08/10 08:16:34;;;;;;;8.70;1.50;;;;;;;32.26;34.08;100654.88;4897002;29;20036;-68
2022/08/10 08:19:02;;;;;;;2.63;1.60;;;;;;;32.55;34.51;100646.97;4896216;29;20103;-68
2022/08/10 08:21:28;;;;;;;4.18;1.40;;;;;;;32.64;33.23;100634.88;4893716;29;20045;-68
2022/08/10 08:23:54;;;;;;;2.03;1.38;;;;;;;32.55;33.15;100651.59;4886964;29;20092;-69
2022/08/10 08:26:21;;;;;;;2.65;1.60;;;;;;;32.57;32.95;100641.28;4895079;29;20107;-69
2022/08/10 08:28:49;;;;;;;5.18;1.60;;;;;;;32.49;33.25;100639.38;4880881;29;20024;-70
2022/08/10 08:31:16;;;;;;;2.85;1.33;;;;;;;32.81;33.97;100636.53;4900236;29;20110;-69
2022/08/10 08:33:44;;;;;;;3.10;1.10;;;;;;;33.04;33.08;100643.03;4897608;29;20084;-69
2022/08/10 08:36:13;;;;;;;4.00;1.10;;;;;;;33.18;32.47;100639.53;4897665;29;20385;-69
2022/08/10 08:38:41;;;;;;;3.28;1.45;;;;;;;33.21;31.87;100641.91;4898123;29;20037;-69
2022/08/10 08:41:21;;;;;;;2.03;1.10;;;;;;;33.37;32.35;100638.22;4898486;29;20032;-70
2022/08/10 08:44:02;;;;;;;2.63;1.45;;;;;;;33.23;31.97;100637.06;4898319;29;20035;-70
2022/08/10 08:46:37;;;;;;;3.20;1.45;;;;;;;33.01;31.96;100628.75;4898358;29;20113;-70
2022/08/10 08:49:29;;;;;;;2.38;1.20;;;;;;;33.24;32.70;100633.31;4895994;29;20060;-71
2022/08/10 08:52:15;;;;;;;2.80;1.40;;;;;;;33.32;32.02;100630.50;4897668;29;20024;-71
2022/08/10 08:55:13;;;;;;;3.45;1.45;;;;;;;33.56;32.71;100625.91;4886247;29;20059;-72
2022/08/10 08:58:04;;;;;;;6.78;1.13;;;;;;;33.38;30.96;100618.72;4878764;29;20085;-72
2022/08/10 09:00:44;;;;;;;3.38;1.10;;;;;;;33.55;32.27;100618.66;4895688;29;20048;-72
2022/08/10 09:03:41;;;;;;;2.25;1.23;;;;;;;33.71;31.25;100611.13;4897378;29;20469;-72
2022/08/10 09:06:28;;;;;;;2.85;1.15;;;;;;;34.22;32.16;100610.38;4881159;29;20072;-72
2022/08/10 09:09:06;;;;;;;2.35;1.10;;;;;;;34.40;31.25;100610.00;4897922;29;20131;-73
2022/08/10 09:11:56;;;;;;;2.53;1.00;;;;;;;34.67;30.13;100616.84;4897905;29;20169;-71
2022/08/10 09:14:21;;;;;;;3.15;1.10;;;;;;;34.54;28.06;100618.38;4897530;29;20036;-70
2022/08/10 09:16:57;;;;;;;3.13;0.70;;;;;;;34.64;25.48;100618.09;4897324;29;20033;-70
2022/08/10 09:19:48;;;;;;;1.75;0.90;;;;;;;34.35;25.20;100612.50;4896448;29;20123;-71
2022/08/10 09:22:32;;;;;;;2.05;0.70;;;;;;;34.30;25.49;100604.75;4896039;29;20464;-70
2022/08/10 09:25:17;;;;;;;1.92;0.80;;;;;;;34.56;25.49;100610.72;4896696;29;20040;-71
2022/08/10 09:27:58;;;;;;;2.28;0.90;;;;;;;34.09;25.04;100601.00;4896904;29;20774;-72
2022/08/10 09:30:37;;;;;;;2.50;0.90;;;;;;;34.18;24.91;100605.41;4897472;29;20458;-72
2022/08/10 09:33:15;;;;;;;1.33;1.17;;;;;;;34.59;25.58;100609.50;4897119;29;20038;-71
2022/08/10 09:36:10;;;;;;;4.63;1.00;;;;;;;35.00;24.36;100609.91;4897319;29;20039;-71
2022/08/10 09:38:50;;;;;;;2.33;0.70;;;;;;;35.07;23.79;100608.09;4896216;29;20415;-73
2022/08/10 09:41:18;;;;;;;2.85;1.23;;;;;;;34.49;25.27;100603.41;4879500;29;20021;-73
2022/08/10 09:44:21;;;;;;;1.02;0.70;;;;;;;34.09;24.79;100607.38;4911073;29;20385;-71
2022/08/10 09:47:15;;;;;;;1.25;0.75;;;;;;;34.20;25.44;100603.31;4902747;29;20095;-73
2022/08/10 09:50:01;;;;;;;1.20;0.70;;;;;;;34.13;24.10;100605.13;4860984;29;20498;-69
2022/08/10 09:53:00;;;;;;;1.88;0.80;;;;;;;33.97;24.81;100591.47;4878363;29;20025;-70
2022/08/10 09:55:41;;;;;;;4.13;0.90;;;;;;;34.49;24.55;100586.81;4878578;29;20085;-72
2022/08/10 09:58:19;;;;;;;1.92;0.73;;;;;;;34.87;25.99;100602.25;4889552;29;20028;-72
2022/08/10 10:00:51;;;;;;;2.38;0.77;;;;;;;35.00;23.37;100590.53;4879285;29;20052;-72
2022/08/10 10:03:35;;;;;;;1.00;0.60;;;;;;;34.60;23.80;100594.63;4880163;29;20036;-72
2022/08/10 10:06:10;;;;;;;3.08;0.90;;;;;;;34.13;25.48;100583.00;4896584;29;20135;-71
2022/08/10 10:08:41;;;;;;;1.70;0.70;;;;;;;34.58;24.63;100583.75;4896233;29;20029;-71
2022/08/10 10:11:13;;;;;;;1.67;0.70;;;;;;;34.37;24.11;100575.34;4896182;29;20029;-71
2022/08/10 10:14:06;;;;;;;2.75;0.95;;;;;;;34.24;23.96;100588.06;4895980;29;20107;-70
2022/08/10 10:17:02;;;;;;;4.55;1.10;;;;;;;34.36;24.03;100589.34;4896188;29;20072;-66
2022/08/10 10:20:00;;;;;;;0.80;0.73;;;;;;;34.55;23.94;100592.44;4896120;29;20054;-72
2022/08/10 10:22:51;;;;;;;1.67;0.80;;;;;;;34.87;23.57;100585.66;4899212;29;20033;-71
2022/08/10 10:25:31;;;;;;;2.53;0.85;;;;;;;35.16;25.77;100593.94;4896805;29;20033;-71
2022/08/10 10:28:08;;;;;;;1.58;0.80;;;;;;;35.31;25.01;100582.84;4896537;29;20036;-72
2022/08/10 10:30:53;;;;;;;2.72;1.00;;;;;;;35.53;23.26;100570.78;4896686;29;20496;-71
2022/08/10 10:33:32;;;;;;;2.05;0.80;;;;;;;35.45;24.35;100580.06;4896394;29;20029;-71
2022/08/10 10:35:58;;;;;;;2.92;0.90;;;;;;;35.22;24.67;100579.34;4885134;29;20103;-72
2022/08/10 10:38:35;;;;;;;1.92;1.05;;;;;;;35.56;22.66;100581.47;4877159;29;20035;-72
2022/08/10 10:41:12;;;;;;;1.63;0.85;;;;;;;35.61;23.13;100570.66;4860274;29;20060;-72
2022/08/10 10:44:02;;;;;;;1.40;0.73;;;;;;;35.46;24.42;100581.78;4876939;29;20040;-71
2022/08/10 10:46:46;;;;;;;2.90;1.00;;;;;;;35.65;22.88;100571.97;4887806;29;20388;-71
2022/08/10 10:49:27;;;;;;;1.83;0.82;;;;;;;35.73;22.88;100567.16;4895538;29;20052;-71
2022/08/10 10:52:14;;;;;;;2.47;0.80;;;;;;;35.91;22.83;100568.63;4886811;29;20036;-71
2022/08/10 10:55:24;;;;;;;3.13;0.80;;;;;;;36.17;22.94;100555.00;4860769;29;20549;-71
2022/08/10 10:58:05;;;;;;;2.55;0.90;;;;;;;35.53;24.01;100555.03;4874706;29;20684;-71
2022/08/10 11:00:42;;;;;;;2.70;0.90;;;;;;;35.70;23.71;100556.47;4877417;29;20136;-69
2022/08/10 11:03:47;;;;;;;2.38;0.95;;;;;;;35.75;23.99;100555.91;4888861;29;20040;-69
2022/08/10 11:06:15;;;;;;;2.92;0.95;;;;;;;35.66;23.12;100555.16;4896175;29;20135;-68
2022/08/10 11:08:47;;;;;;;1.02;0.60;;;;;;;35.77;24.32;100568.47;4895633;29;20032;-68
2022/08/10 11:11:22;;;;;;;2.43;0.97;;;;;;;35.95;23.18;100553.34;4895762;29;20051;-67
2022/08/10 11:14:05;;;;;;;2.20;0.70;;;;;;;35.85;23.23;100559.19;4895969;29;20269;-69
2022/08/10 11:16:46;;;;;;;1.50;0.85;;;;;;;36.00;23.34;100553.59;4888037;29;20085;-68
2022/08/10 11:19:19;;;;;;;1.25;0.85;;;;;;;35.79;22.15;100557.19;4877396;29;20036;-68
2022/08/10 11:22:02;;;;;;;1.35;0.77;;;;;;;36.15;23.86;100560.72;4876861;29;20025;-67
2022/08/10 11:24:49;;;;;;;3.20;0.90;;;;;;;36.43;23.58;100552.44;4875995;29;20033;-68
2022/08/10 11:27:20;;;;;;;2.97;1.00;;;;;;;36.75;22.90;100557.31;4876362;29;20057;-68
2022/08/10 11:30:11;;;;;;;1.75;1.00;;;;;;;36.73;22.30;100557.53;4876255;29;20089;-68
2022/08/10 11:32:44;;;;;;;3.67;0.90;;;;;;;36.69;22.93;100558.16;4883362;29;20035;-68
2022/08/10 11:35:33;;;;;;;2.80;0.95;;;;;;;36.25;22.11;100546.53;4894777;29;20160;-68
2022/08/10 11:38:20;;;;;;;1.20;0.80;;;;;;;35.44;22.94;100541.50;4895567;29;20436;-68
2022/08/10 11:41:13;;;;;;;1.50;0.80;;;;;;;35.66;24.02;100544.09;4899057;29;20028;-69
2022/08/10 11:43:48;;;;;;;1.63;0.90;;;;;;;36.14;23.63;100547.09;4877066;29;20040;-70
2022/08/10 11:46:37;;;;;;;2.10;1.10;;;;;;;36.80;23.20;100554.84;4885135;29;20020;-70
2022/08/10 11:49:09;;;;;;;3.05;0.80;;;;;;;36.98;23.15;100549.56;4895482;29;20141;-69
2022/08/10 11:51:43;;;;;;;2.53;0.90;;;;;;;36.91;22.76;100545.91;4895981;29;20031;-69
2022/08/10 11:54:26;;;;;;;1.63;0.80;;;;;;;37.12;22.26;100542.16;4895812;29;20038;-68